createdAt,value
2019-03-01T00:00:16.309Z,99160.70
2019-03-01T00:02:44.919Z,99157.14
2019-03-01T00:05:22.632Z,99155.28
2019-03-01T00:08:11.450Z,99155.53
2019-03-01T00:11:08.399Z,99169.03
2019-03-01T00:13:45.527Z,99163.94
2019-03-01T00:16:19.795Z,99167.11
2019-03-01T00:19:10.337Z,99165.25
2019-03-01T00:21:50.791Z,99165.58
2019-03-01T00:24:36.822Z,99163.77
2019-03-01T00:27:17.095Z,99159.03
2019-03-01T00:29:54.271Z,99153.94
2019-03-01T00:32:57.320Z,99157.63
2019-03-01T00:35:31.548Z,99154.13
2019-03-01T00:38:02.949Z,99147.80
2019-03-01T00:40:42.644Z,99152.48
2019-03-01T00:43:31.800Z,99151.61
2019-03-01T00:46:00.043Z,99145.64
2019-03-01T00:48:28.504Z,99146.92
2019-03-01T00:50:57.004Z,99135.75
2019-03-01T00:53:25.238Z,99141.48
2019-03-01T00:55:53.705Z,99137.62
2019-03-01T00:58:22.159Z,99143.23
2019-03-01T01:00:50.405Z,99142.88
2019-03-01T01:03:18.629Z,99145.95
2019-03-01T01:05:47.145Z,99138.74
2019-03-01T01:08:15.378Z,99142.36
2019-03-01T01:10:43.608Z,99133.81
2019-03-01T01:13:11.846Z,99115.91
2019-03-01T01:15:40.080Z,99115.58
2019-03-01T01:18:08.324Z,99110.34
2019-03-01T01:20:36.583Z,99106.51
2019-03-01T01:23:04.804Z,99095.73
2019-03-01T01:25:33.037Z,99099.95
2019-03-01T01:28:01.604Z,99096.58
2019-03-01T01:30:29.837Z,99087.73
2019-03-01T01:32:58.300Z,99089.95
2019-03-01T01:35:29.463Z,99086.58
2019-03-01T01:37:57.705Z,99085.59
2019-03-01T01:40:25.930Z,99078.74
2019-03-01T01:42:54.162Z,99072.41
2019-03-01T01:45:22.395Z,99072.17
2019-03-01T01:47:50.632Z,99076.23
2019-03-01T01:50:18.860Z,99078.56
2019-03-01T01:52:47.090Z,99073.66
2019-03-01T01:55:15.315Z,99069.13
2019-03-01T01:57:43.554Z,99081.45
2019-03-01T02:00:13.120Z,99078.76
2019-03-01T02:02:41.364Z,99068.95
2019-03-01T02:05:09.653Z,99068.19
2019-03-01T02:07:38.109Z,99075.84
2019-03-01T02:10:08.515Z,99073.15
2019-03-01T02:12:37.548Z,99071.86
2019-03-01T02:15:12.654Z,99071.80
2019-03-01T02:17:40.992Z,99070.64
2019-03-01T02:20:11.365Z,99064.22
2019-03-01T02:22:39.588Z,99061.30
2019-03-01T02:25:11.800Z,99066.97
2019-03-01T02:27:40.253Z,99064.55
2019-03-01T02:30:16.757Z,99062.16
2019-03-01T02:32:45.506Z,99060.17
2019-03-01T02:35:15.938Z,99055.09
2019-03-01T02:37:44.169Z,99057.37
2019-03-01T02:40:14.341Z,99049.66
2019-03-01T02:42:42.566Z,99050.27
2019-03-01T02:45:13.240Z,99052.37
2019-03-01T02:47:41.473Z,99043.84
2019-03-01T02:50:12.739Z,99032.68
2019-03-01T02:52:40.973Z,99032.27
2019-03-01T02:55:12.387Z,99036.83
2019-03-01T02:57:40.960Z,99025.06
2019-03-01T03:00:19.859Z,99025.59
2019-03-01T03:02:48.083Z,99028.10
2019-03-01T03:05:16.319Z,99013.55
2019-03-01T03:07:46.407Z,99016.65
2019-03-01T03:10:15.212Z,99014.61
2019-03-01T03:12:43.449Z,99014.84
2019-03-01T03:15:14.601Z,99015.36
2019-03-01T03:17:42.823Z,99012.39
2019-03-01T03:20:11.067Z,99014.48
2019-03-01T03:22:39.292Z,99014.76
2019-03-01T03:25:12.822Z,99005.03
2019-03-01T03:27:41.047Z,98997.38
2019-03-01T03:30:16.969Z,98993.05
2019-03-01T03:32:45.362Z,98996.77
2019-03-01T03:35:13.622Z,98987.72
2019-03-01T03:37:41.805Z,98992.56
2019-03-01T03:40:14.222Z,98988.56
2019-03-01T03:42:42.457Z,98986.76
2019-03-01T03:45:13.357Z,98997.03
2019-03-01T03:47:41.580Z,98988.80
2019-03-01T03:50:14.304Z,98990.90
2019-03-01T03:52:42.982Z,98987.98
2019-03-01T03:55:14.210Z,98983.72
2019-03-01T03:57:42.438Z,98979.11
2019-03-01T04:00:15.981Z,98978.35
2019-03-01T04:02:44.220Z,98974.27
2019-03-01T04:05:12.444Z,98971.28
2019-03-01T04:07:40.917Z,98968.07
2019-03-01T04:10:10.581Z,98967.41
2019-03-01T04:12:38.810Z,98968.45
2019-03-01T04:15:09.749Z,98964.19
2019-03-01T04:17:37.988Z,98962.78
2019-03-01T04:20:09.320Z,98958.81
2019-03-01T04:22:37.558Z,98958.88
2019-03-01T04:25:05.782Z,98955.89
2019-03-01T04:27:34.060Z,98954.41
2019-03-01T04:30:02.301Z,98962.86
2019-03-01T04:32:30.806Z,98966.25
2019-03-01T04:34:59.031Z,98957.67
2019-03-01T04:37:27.263Z,98958.73
2019-03-01T04:39:55.492Z,98959.19
2019-03-01T04:42:23.726Z,98954.06
2019-03-01T04:44:51.959Z,98955.84
2019-03-01T04:47:20.190Z,98956.24
2019-03-01T04:49:48.429Z,98960.09
2019-03-01T04:52:32.966Z,98952.39
2019-03-01T04:55:01.326Z,98947.70
2019-03-01T04:57:29.566Z,98952.77
2019-03-01T04:59:57.786Z,98944.25
2019-03-01T05:02:26.028Z,98941.45
2019-03-01T05:04:54.255Z,98940.75
2019-03-01T05:07:22.485Z,98939.06
2019-03-01T05:09:50.715Z,98935.44
2019-03-01T05:12:18.942Z,98930.89
2019-03-01T05:14:47.402Z,98935.50
2019-03-01T05:17:15.618Z,98928.67
2019-03-01T05:19:43.850Z,98930.89
2019-03-01T05:22:12.073Z,98931.44
2019-03-01T05:24:40.318Z,98934.13
2019-03-01T05:27:08.542Z,98931.55
2019-03-01T05:29:36.780Z,98930.39
2019-03-01T05:32:05.011Z,98926.13
2019-03-01T05:34:33.244Z,98930.80
2019-03-01T05:37:01.474Z,98928.00
2019-03-01T05:39:29.721Z,98931.97
2019-03-01T05:41:57.947Z,98927.70
2019-03-01T05:44:26.185Z,98922.10
2019-03-01T05:46:54.407Z,98922.05
2019-03-01T05:49:22.640Z,98921.87
2019-03-01T05:51:51.094Z,98917.02
2019-03-01T05:54:19.330Z,98910.08
2019-03-01T05:56:47.784Z,98913.20
2019-03-01T05:59:22.449Z,98913.49
2019-03-01T06:02:08.706Z,98918.02
2019-03-01T06:04:40.476Z,98917.37
2019-03-01T06:07:20.527Z,98917.19
2019-03-01T06:10:09.881Z,98920.22
2019-03-01T06:13:02.058Z,98923.20
2019-03-01T06:15:54.470Z,98923.20
2019-03-01T06:18:40.629Z,98913.52
2019-03-01T06:21:32.786Z,98919.99
2019-03-01T06:24:12.749Z,98925.06
2019-03-01T06:26:47.203Z,98923.50
2019-03-01T06:29:36.497Z,98921.48
2019-03-01T06:32:13.560Z,98928.02
2019-03-01T06:34:50.981Z,98916.94
2019-03-01T06:37:40.161Z,98922.95
2019-03-01T06:40:51.875Z,98923.88
2019-03-01T06:43:35.246Z,98917.70
2019-03-01T06:46:15.150Z,98920.30
2019-03-01T06:48:45.238Z,98917.44
2019-03-01T06:51:28.792Z,98914.11
2019-03-01T06:53:54.046Z,98912.59
2019-03-01T06:56:22.283Z,98915.70
2019-03-01T06:58:50.735Z,98913.61
2019-03-01T07:01:19.432Z,98915.27
2019-03-01T07:03:49.531Z,98912.44
2019-03-01T07:06:17.754Z,98925.39
2019-03-01T07:08:45.990Z,98920.20
2019-03-01T07:11:14.213Z,98922.53
2019-03-01T07:13:42.666Z,98916.46
2019-03-01T07:16:10.897Z,98920.95
2019-03-01T07:18:39.356Z,98918.47
2019-03-01T07:21:07.588Z,98918.05
2019-03-01T07:23:36.959Z,98922.32
2019-03-01T07:26:05.347Z,98919.98
2019-03-01T07:28:33.586Z,98919.98
2019-03-01T07:31:01.813Z,98920.55
2019-03-01T07:33:30.047Z,98918.53
2019-03-01T07:35:58.547Z,98917.36
2019-03-01T07:38:26.780Z,98916.59
2019-03-01T07:40:55.290Z,98914.71
2019-03-01T07:43:23.526Z,98921.95
2019-03-01T07:45:52.046Z,98918.92
2019-03-01T07:48:20.529Z,98914.66
2019-03-01T07:50:48.753Z,98921.66
2019-03-01T07:53:16.996Z,98923.94
2019-03-01T07:55:46.606Z,98935.52
2019-03-01T07:58:15.007Z,98936.03
2019-03-01T08:00:46.747Z,98935.04
2019-03-01T08:03:15.166Z,98939.05
2019-03-01T08:05:43.733Z,98942.80
2019-03-01T08:08:11.972Z,98938.71
2019-03-01T08:10:40.218Z,98936.81
2019-03-01T08:13:08.460Z,98942.14
2019-03-01T08:15:36.728Z,98946.45
2019-03-01T08:18:08.365Z,98947.59
2019-03-01T08:20:34.945Z,98949.93
2019-03-01T08:23:03.184Z,98944.98
2019-03-01T08:25:31.449Z,98946.88
2019-03-01T08:27:59.682Z,98950.70
2019-03-01T08:30:28.430Z,98955.23
2019-03-01T08:32:56.701Z,98948.03
2019-03-01T08:35:25.305Z,98955.44
2019-03-01T08:37:54.958Z,98955.09
2019-03-01T08:40:23.469Z,98951.74
2019-03-01T08:42:51.716Z,98959.00
2019-03-01T08:45:20.947Z,98957.67
2019-03-01T08:47:49.333Z,98957.26
2019-03-01T08:50:17.938Z,98962.19
2019-03-01T08:52:46.956Z,98964.81
2019-03-01T08:55:19.586Z,98962.50
2019-03-01T08:57:47.837Z,98966.05
2019-03-01T09:00:23.206Z,98964.50
2019-03-01T09:02:52.841Z,98969.30
2019-03-01T09:05:21.081Z,98958.79
2019-03-01T09:07:49.588Z,98962.87
2019-03-01T09:10:18.207Z,98962.85
2019-03-01T09:12:46.672Z,98966.61
2019-03-01T09:15:15.683Z,98961.22
2019-03-01T09:17:44.125Z,98965.91
2019-03-01T09:20:16.290Z,98966.93
2019-03-01T09:22:44.889Z,98962.91
2019-03-01T09:25:14.855Z,98963.20
2019-03-01T09:27:43.336Z,98969.63
2019-03-01T09:30:20.187Z,98973.43
2019-03-01T09:32:48.418Z,98980.06
2019-03-01T09:35:32.073Z,98986.10
2019-03-01T09:38:00.329Z,98995.94
2019-03-01T09:40:29.666Z,98990.45
2019-03-01T09:42:58.120Z,98992.20
2019-03-01T09:45:35.611Z,98998.64
2019-03-01T09:47:56.318Z,98996.98
2019-03-01T09:50:24.902Z,99012.18
2019-03-01T09:52:55.542Z,99016.97
2019-03-01T09:55:23.133Z,99017.43
2019-03-01T09:57:51.359Z,99017.89
2019-03-01T10:00:23.140Z,99016.20
2019-03-01T10:02:51.438Z,99015.42
2019-03-01T10:05:20.000Z,99016.44
2019-03-01T10:07:48.232Z,99020.97
2019-03-01T10:10:21.325Z,99028.48
2019-03-01T10:12:49.780Z,99024.33
2019-03-01T10:15:18.252Z,99021.02
2019-03-01T10:17:46.624Z,99018.11
2019-03-01T10:20:15.359Z,99026.81
2019-03-01T10:22:43.873Z,99025.44
2019-03-01T10:25:14.157Z,99029.58
2019-03-01T10:27:42.678Z,99026.95
2019-03-01T10:30:16.446Z,99028.20
2019-03-01T10:32:44.697Z,99017.23
2019-03-01T10:35:14.675Z,99035.94
2019-03-01T10:37:42.978Z,99036.34
2019-03-01T10:40:13.683Z,99035.38
2019-03-01T10:42:41.919Z,99037.31
2019-03-01T10:45:13.845Z,99035.42
2019-03-01T10:47:42.080Z,99032.13
2019-03-01T10:50:11.889Z,99039.34
2019-03-01T10:52:40.294Z,99035.52
2019-03-01T10:55:11.765Z,99034.19
2019-03-01T10:57:39.995Z,99031.42
2019-03-01T11:00:24.490Z,99038.98
2019-03-01T11:02:52.716Z,99037.13
2019-03-01T11:05:21.040Z,99037.55
2019-03-01T11:07:50.413Z,99037.13
2019-03-01T11:10:33.255Z,99041.88
2019-03-01T11:13:01.714Z,99039.86
2019-03-01T11:15:30.197Z,99037.55
2019-03-01T11:17:58.424Z,99030.50
2019-03-01T11:20:27.047Z,99047.77
2019-03-01T11:22:55.563Z,99047.41
2019-03-01T11:25:24.852Z,99036.62
2019-03-01T11:27:53.079Z,99042.30
2019-03-01T11:30:26.432Z,99035.11
2019-03-01T11:32:54.970Z,99042.38
2019-03-01T11:35:23.218Z,99048.59
2019-03-01T11:37:51.461Z,99049.02
2019-03-01T11:40:33.460Z,99046.10
2019-03-01T11:43:02.265Z,99052.78
2019-03-01T11:45:30.499Z,99057.78
2019-03-01T11:47:58.968Z,99061.33
2019-03-01T11:50:27.429Z,99074.23
2019-03-01T11:52:55.672Z,99064.41
2019-03-01T11:55:23.916Z,99077.73
2019-03-01T11:57:52.453Z,99075.44
2019-03-01T12:00:22.718Z,99074.08
2019-03-01T12:02:51.448Z,99084.97
2019-03-01T12:05:20.019Z,99079.94
2019-03-01T12:07:48.500Z,99086.52
2019-03-01T12:10:21.044Z,99086.80
2019-03-01T12:12:49.293Z,99087.58
2019-03-01T12:15:17.900Z,99097.47
2019-03-01T12:17:46.096Z,99093.50
2019-03-01T12:20:16.488Z,99102.02
2019-03-01T12:22:44.729Z,99091.34
2019-03-01T12:25:12.970Z,99097.94
2019-03-01T12:27:41.287Z,99105.73
2019-03-01T12:30:15.364Z,99112.13
2019-03-01T12:32:43.609Z,99105.77
2019-03-01T12:35:12.014Z,99107.06
2019-03-01T12:37:40.269Z,99116.05
2019-03-01T12:40:17.576Z,99115.52
2019-03-01T12:42:45.830Z,99110.31
2019-03-01T12:45:15.309Z,99117.48
2019-03-01T12:47:43.718Z,99115.05
2019-03-01T12:50:15.049Z,99117.08
2019-03-01T12:52:43.571Z,99128.19
2019-03-01T12:55:17.755Z,99127.59
2019-03-01T12:57:45.995Z,99126.06
2019-03-01T13:00:17.630Z,99115.60
2019-03-01T13:02:46.111Z,99115.91
2019-03-01T13:05:14.717Z,99119.73
2019-03-01T13:07:42.966Z,99122.31
2019-03-01T13:10:14.380Z,99137.61
2019-03-01T13:12:42.623Z,99118.42
2019-03-01T13:15:13.821Z,99117.55
2019-03-01T13:17:42.160Z,99116.46
2019-03-01T13:20:12.948Z,99121.34
2019-03-01T13:22:41.251Z,99106.98
2019-03-01T13:25:10.441Z,99108.14
2019-03-01T13:27:38.971Z,99110.50
2019-03-01T13:30:24.073Z,99105.47
2019-03-01T13:32:52.528Z,99103.44
2019-03-01T13:35:22.232Z,99118.05
2019-03-01T13:37:51.993Z,99107.59
2019-03-01T13:40:24.435Z,99116.20
2019-03-01T13:42:52.205Z,99105.47
2019-03-01T13:45:23.028Z,99106.99
2019-03-01T13:47:51.258Z,99109.16
2019-03-01T13:50:20.340Z,99098.63
2019-03-01T13:52:50.061Z,99103.41
2019-03-01T13:55:22.144Z,99096.68
2019-03-01T13:57:50.053Z,99103.72
2019-03-01T14:00:22.195Z,99099.23
2019-03-01T14:02:50.599Z,99108.77
2019-03-01T14:05:19.338Z,99126.50
2019-03-01T14:07:48.211Z,99108.55
2019-03-01T14:10:19.149Z,99121.53
2019-03-01T14:12:47.614Z,99121.86
2019-03-01T14:15:17.198Z,99097.69
2019-03-01T14:17:45.652Z,99123.11
2019-03-01T14:20:20.526Z,99110.02
2019-03-01T14:22:49.397Z,99109.82
2019-03-01T14:25:18.079Z,99113.47
2019-03-01T14:27:46.533Z,99111.40
2019-03-01T14:30:17.286Z,99125.96
2019-03-01T14:32:45.515Z,99129.51
2019-03-01T14:35:14.475Z,99131.58
2019-03-01T14:37:42.709Z,99142.58
2019-03-01T14:40:12.993Z,99138.09
2019-03-01T14:42:46.286Z,99132.30
2019-03-01T14:45:16.495Z,99134.64
2019-03-01T14:47:45.101Z,99131.32
2019-03-01T14:50:21.335Z,99132.55
2019-03-01T14:52:56.660Z,99145.58
2019-03-01T14:55:25.794Z,99139.90
2019-03-01T14:58:15.485Z,99132.94
2019-03-01T15:00:53.156Z,99128.97
2019-03-01T15:03:34.901Z,99138.13
2019-03-01T15:06:03.621Z,99135.14
2019-03-01T15:08:32.078Z,99157.30
2019-03-01T15:11:04.472Z,99160.69
2019-03-01T15:13:34.892Z,99170.06
2019-03-01T15:16:04.782Z,99171.88
2019-03-01T15:18:33.421Z,99207.61
2019-03-01T15:21:02.827Z,99181.03
2019-03-01T15:23:31.623Z,99183.03
2019-03-01T15:26:00.089Z,99177.63
2019-03-01T15:28:28.326Z,99198.00
2019-03-01T15:30:57.336Z,99212.51
2019-03-01T15:33:25.953Z,99211.49
2019-03-01T15:35:54.193Z,99213.59
2019-03-01T15:38:23.800Z,99211.75
2019-03-01T15:40:52.638Z,99213.27
2019-03-01T15:43:21.317Z,99218.19
2019-03-01T15:45:49.560Z,99214.38
2019-03-01T15:48:18.022Z,99212.34
2019-03-01T15:50:46.251Z,99219.62
2019-03-01T15:53:14.571Z,99226.05
2019-03-01T15:55:42.924Z,99227.62
2019-03-01T15:58:11.163Z,99234.66
2019-03-01T16:00:39.696Z,99240.91
2019-03-01T16:03:07.937Z,99246.77
2019-03-01T16:05:37.417Z,99252.52
2019-03-01T16:08:08.517Z,99240.69
2019-03-01T16:10:36.956Z,99246.55
2019-03-01T16:13:08.454Z,99254.77
2019-03-01T16:15:38.786Z,99255.18
2019-03-01T16:18:05.208Z,99254.44
2019-03-01T16:20:33.680Z,99264.69
2019-03-01T16:23:02.162Z,99261.34
2019-03-01T16:25:30.620Z,99268.89
2019-03-01T16:27:59.102Z,99271.69
2019-03-01T16:30:27.342Z,99268.53
2019-03-01T16:32:55.812Z,99275.44
2019-03-01T16:35:24.274Z,99280.53
2019-03-01T16:38:02.747Z,99271.05
2019-03-01T16:40:31.192Z,99276.77
2019-03-01T16:42:59.462Z,99294.91
2019-03-01T16:45:27.693Z,99291.60
2019-03-01T16:47:55.941Z,99304.00
2019-03-01T16:50:24.173Z,99308.28
2019-03-01T16:52:52.433Z,99303.53
2019-03-01T16:55:28.901Z,99309.85
2019-03-01T16:58:06.166Z,99314.85
2019-03-01T17:00:27.411Z,99322.73
2019-03-01T17:02:58.758Z,99324.16
2019-03-01T17:05:27.076Z,99330.53
2019-03-01T17:07:55.317Z,99334.73
2019-03-01T17:10:26.428Z,99331.22
2019-03-01T17:12:53.581Z,99337.47
2019-03-01T17:15:23.052Z,99343.42
2019-03-01T17:17:51.634Z,99347.47
2019-03-01T17:20:20.089Z,99348.42
2019-03-01T17:22:48.331Z,99357.02
2019-03-01T17:25:19.350Z,99356.95
2019-03-01T17:27:49.557Z,99347.54
2019-03-01T17:30:20.177Z,99358.11
2019-03-01T17:32:48.648Z,99354.56
2019-03-01T17:35:17.084Z,99356.13
2019-03-01T17:37:45.382Z,99357.95
2019-03-01T17:40:17.687Z,99359.74
2019-03-01T17:42:45.922Z,99360.15
2019-03-01T17:45:22.248Z,99374.77
2019-03-01T17:47:50.675Z,99377.81
2019-03-01T17:50:19.173Z,99378.70
2019-03-01T17:52:47.430Z,99379.10
2019-03-01T17:55:21.251Z,99386.34
2019-03-01T17:57:50.319Z,99394.41
2019-03-01T18:00:26.655Z,99397.95
2019-03-01T18:02:54.952Z,99395.47
2019-03-01T18:05:23.196Z,99406.82
2019-03-01T18:07:51.659Z,99409.80
2019-03-01T18:10:20.129Z,99412.30
2019-03-01T18:12:48.384Z,99414.94
2019-03-01T18:15:16.993Z,99408.79
2019-03-01T18:17:45.455Z,99413.84
2019-03-01T18:20:14.268Z,99408.79
2019-03-01T18:22:42.793Z,99408.45
2019-03-01T18:25:13.247Z,99407.98
2019-03-01T18:27:41.468Z,99412.38
2019-03-01T18:30:27.416Z,99415.42
2019-03-01T18:32:55.649Z,99423.61
2019-03-01T18:35:23.914Z,99418.88
2019-03-01T18:37:54.879Z,99424.89
2019-03-01T18:40:22.147Z,99424.78
2019-03-01T18:42:50.407Z,99428.39
2019-03-01T18:45:23.912Z,99422.16
2019-03-01T18:47:52.181Z,99435.63
2019-03-01T18:50:23.341Z,99442.73
2019-03-01T18:52:53.395Z,99431.28
2019-03-01T18:55:21.766Z,99438.47
2019-03-01T18:57:49.997Z,99435.02
2019-03-01T19:00:26.537Z,99433.67
2019-03-01T19:02:54.767Z,99435.42
2019-03-01T19:05:23.005Z,99440.57
2019-03-01T19:07:51.236Z,99446.53
2019-03-01T19:10:24.031Z,99448.83
2019-03-01T19:12:51.571Z,99463.80
2019-03-01T19:15:19.821Z,99459.73
2019-03-01T19:17:48.049Z,99462.83
2019-03-01T19:20:21.957Z,99469.23
2019-03-01T19:22:50.205Z,99475.36
2019-03-01T19:25:21.712Z,99472.05
2019-03-01T19:27:50.741Z,99485.52
2019-03-01T19:30:21.438Z,99488.19
2019-03-01T19:32:49.674Z,99493.72
2019-03-01T19:35:17.902Z,99492.74
2019-03-01T19:37:49.656Z,99497.46
2019-03-01T19:40:18.281Z,99502.12
2019-03-01T19:42:46.517Z,99492.59
2019-03-01T19:45:16.585Z,99500.84
2019-03-01T19:47:44.821Z,99493.59
2019-03-01T19:50:15.553Z,99500.23
2019-03-01T19:52:47.106Z,99498.21
2019-03-01T19:55:14.102Z,99501.11
2019-03-01T19:57:42.409Z,99499.42
2019-03-01T20:00:16.828Z,99500.67
2019-03-01T20:02:45.070Z,99510.02
2019-03-01T20:05:18.799Z,99505.70
2019-03-01T20:07:47.042Z,99505.11
2019-03-01T20:10:16.810Z,99502.25
2019-03-01T20:12:45.408Z,99512.08
2019-03-01T20:15:18.168Z,99510.58
2019-03-01T20:17:46.476Z,99514.91
2019-03-01T20:20:17.200Z,99518.14
2019-03-01T20:22:45.431Z,99511.23
2019-03-01T20:25:15.985Z,99506.39
2019-03-01T20:27:45.386Z,99511.71
2019-03-01T20:30:30.305Z,99516.38
2019-03-01T20:32:55.872Z,99509.80
2019-03-01T20:35:25.989Z,99532.77
2019-03-01T20:37:54.400Z,99527.48
2019-03-01T20:40:26.459Z,99540.36
2019-03-01T20:42:55.853Z,99542.05
2019-03-01T20:45:40.795Z,99544.72
2019-03-01T20:48:09.099Z,99542.48
2019-03-01T20:50:37.326Z,99546.31
2019-03-01T20:53:05.547Z,99536.80
2019-03-01T20:55:36.939Z,99542.41
2019-03-01T20:58:04.334Z,99546.48
2019-03-01T21:00:33.039Z,99548.66
2019-03-01T21:03:01.504Z,99556.28
2019-03-01T21:05:30.598Z,99545.28
2019-03-01T21:07:58.917Z,99552.09
2019-03-01T21:10:30.323Z,99542.81
2019-03-01T21:12:58.780Z,99553.45
2019-03-01T21:15:27.013Z,99550.65
2019-03-01T21:17:56.863Z,99543.68
2019-03-01T21:20:25.497Z,99545.46
2019-03-01T21:22:53.947Z,99547.85
2019-03-01T21:25:23.323Z,99549.36
2019-03-01T21:27:51.543Z,99548.36
2019-03-01T21:30:24.961Z,99550.73
2019-03-01T21:32:53.202Z,99553.46
2019-03-01T21:35:21.809Z,99550.97
2019-03-01T21:37:50.206Z,99556.85
2019-03-01T21:40:18.445Z,99553.00
2019-03-01T21:42:46.668Z,99547.98
2019-03-01T21:45:24.733Z,99554.38
2019-03-01T21:47:52.983Z,99546.39
2019-03-01T21:50:21.269Z,99546.20
2019-03-01T21:52:49.731Z,99539.19
2019-03-01T21:55:19.528Z,99548.07
2019-03-01T21:57:47.762Z,99544.61
2019-03-01T22:00:19.405Z,99549.42
2019-03-01T22:02:48.952Z,99546.95
2019-03-01T22:05:17.820Z,99544.61
2019-03-01T22:07:46.049Z,99547.48
2019-03-01T22:10:15.046Z,99553.49
2019-03-01T22:12:43.268Z,99550.84
2019-03-01T22:15:25.506Z,99542.99
2019-03-01T22:17:53.564Z,99555.09
2019-03-01T22:20:22.591Z,99563.39
2019-03-01T22:22:50.801Z,99571.39
2019-03-01T22:25:19.035Z,99576.11
2019-03-01T22:27:47.266Z,99573.90
2019-03-01T22:30:30.139Z,99585.08
2019-03-01T22:32:58.589Z,99581.32
2019-03-01T22:35:26.819Z,99584.84
2019-03-01T22:37:55.055Z,99591.03
2019-03-01T22:40:23.928Z,99587.67
2019-03-01T22:42:53.527Z,99585.16
2019-03-01T22:45:21.757Z,99591.28
2019-03-01T22:47:49.994Z,99590.97
2019-03-01T22:50:19.360Z,99590.24
2019-03-01T22:52:47.611Z,99592.27
2019-03-01T22:55:16.787Z,99581.87
2019-03-01T22:57:45.248Z,99587.92
2019-03-01T23:00:30.217Z,99587.88
2019-03-01T23:02:58.626Z,99588.27
2019-03-01T23:05:27.212Z,99593.31
2019-03-01T23:07:56.773Z,99594.99
2019-03-01T23:10:25.645Z,99601.97
2019-03-01T23:12:53.889Z,99602.27
2019-03-01T23:15:22.114Z,99607.00
2019-03-01T23:17:50.350Z,99614.28
2019-03-01T23:20:18.577Z,99605.25
2019-03-01T23:22:46.901Z,99601.14
2019-03-01T23:25:15.110Z,99601.89
2019-03-01T23:27:43.347Z,99599.55
2019-03-01T23:30:11.577Z,99605.86
2019-03-01T23:32:39.811Z,99602.10
2019-03-01T23:35:08.041Z,99603.78
2019-03-01T23:37:38.921Z,99600.81
2019-03-01T23:40:06.893Z,99600.11
2019-03-01T23:42:35.127Z,99599.39
2019-03-01T23:45:03.723Z,99603.31
2019-03-01T23:47:34.666Z,99598.35
2019-03-01T23:50:01.907Z,99600.52
2019-03-01T23:52:30.138Z,99594.98
2019-03-01T23:54:58.362Z,99607.71
2019-03-01T23:57:26.601Z,99603.09
2019-03-01T23:59:54.827Z,99602.27
